Impacts METAR Board
IDs:

KMEM - Memphis Intl, TN, US

Updated at: 0100 UTC 24 Apr 2019
Potential Impact None Slight Moderate High
Time 23/13Z 23/14Z 23/15Z 23/16Z 23/17Z 23/18Z 23/19Z 23/20Z 23/21Z 23/22Z 23/23Z 24/00Z 24/01Z
Temp63 66 67 69 75 75 75 76 75 75 74 73 69
Dewpt54 55 57 60 62 61 61 60 61 58 59 59 57
Altim30.10 30.10 30.10 30.10 30.10 30.07 30.06 30.03 30.00 30.01 30.01 29.99 29.99
VIS10 10 10 10 10 10 10 10 10 10 10 10 10
CIG200 180 180 250 250 250 150 250 250 180 180 250 --
CoverOVCOVCOVCOVCBKNBKNBKNBKNBKNBKNBKNBKNFEW
FltCatVFRVFRVFRVFRVFRVFRVFRVFRVFRVFRVFRVFRVFR
WX--------------------------
WDir1902002102002400240240180230200190180
WSpd7 9 5 9 7 5 8 7 9 11 9 8 7
WGst-- -- -- -- 15 -- -- -- -- -- -- -- --
Raw hourly METARs
KMEM 231254Z 19007KT 10SM FEW150 SCT180 OVC200 17/12 A3010 RMK AO2 SLP189 T01720122
KMEM 231354Z 20009KT 10SM FEW150 OVC180 19/13 A3010 RMK AO2 SLP189 T01890128 $
KMEM 231454Z 21005KT 10SM SCT140 OVC180 19/14 A3010 RMK AO2 SLP191 T01940139 51005 $
KMEM 231554Z 20009KT 10SM FEW140 SCT190 OVC250 21/16 A3010 RMK AO2 SLP189 T02060156 $
KMEM 231654Z 24007G15KT 10SM FEW140 SCT190 BKN250 24/17 A3010 RMK AO2 SLP189 T02390167 $
KMEM 231754Z VRB05KT 10SM FEW035 SCT170 BKN250 24/16 A3007 RMK AO2 SLP179 T02390161 10244 20156 58010 $
KMEM 231854Z 24008KT 10SM SCT042 BKN150 BKN250 24/16 A3006 RMK AO2 SLP178 T02390161 $
KMEM 231954Z 24007KT 10SM FEW042 SCT160 BKN250 24/16 A3003 RMK AO2 SLP167 T02440156 $
KMEM 232054Z 18009KT 10SM FEW045 SCT150 BKN250 24/16 A3000 RMK AO2 SLP158 T02390161 58022 $
KMEM 232154Z 23011KT 10SM FEW045 BKN180 BKN250 24/14 A3001 RMK AO2 SLP160 T02390144 $
KMEM 232254Z 20009KT 10SM BKN180 BKN250 23/15 A3001 RMK AO2 SLP159 T02330150 $
KMEM 232354Z 19008KT 10SM FEW180 BKN250 23/15 A2999 RMK AO2 SLP154 T02280150 10256 20228 58004 $
KMEM 240054Z 18007KT 10SM FEW180 FEW250 21/14 A2999 RMK AO2 SLP152 T02060139 $



Page loaded:  01:53 UTC  |   06:53 PM Pacific  |   07:53 PM Mountain  |   08:53 PM Central  |   09:53 PM Eastern

 

ADVISORIES

FORECASTS

FORECASTS

OBSERVATIONS

USER TOOLS

ABOUT US